sensor_id;sensor_type;location;lat;lon;timestamp;pressure;altitude;pressure_sealevel;temperature;humidity
68941;BME280;55982;51.476;7.552;2022-12-18T00:01:32;100921.41;;;-4.06;100.00
68941;BME280;55982;51.476;7.552;2022-12-18T00:03:59;100920.53;;;-4.06;100.00
68941;BME280;55982;51.476;7.552;2022-12-18T00:06:26;100917.91;;;-4.08;100.00
68941;BME280;55982;51.476;7.552;2022-12-18T00:08:51;100917.91;;;-4.08;100.00
68941;BME280;55982;51.476;7.552;2022-12-18T00:11:19;100928.41;;;-4.02;100.00
68941;BME280;55982;51.476;7.552;2022-12-18T00:13:46;100931.88;;;-4.00;100.00
68941;BME280;55982;51.476;7.552;2022-12-18T00:16:14;100923.78;;;-3.90;100.00
68941;BME280;55982;51.476;7.552;2022-12-18T00:18:40;100925.41;;;-3.92;100.00
68941;BME280;55982;51.476;7.552;2022-12-18T00:21:09;100928.88;;;-3.90;100.00
68941;BME280;55982;51.476;7.552;2022-12-18T00:23:36;100930.50;;;-3.92;100.00
68941;BME280;55982;51.476;7.552;2022-12-18T00:26:07;100928.88;;;-3.90;100.00
68941;BME280;55982;51.476;7.552;2022-12-18T00:28:33;100926.34;;;-3.90;100.00
68941;BME280;55982;51.476;7.552;2022-12-18T00:31:07;100925.66;;;-3.86;100.00
68941;BME280;55982;51.476;7.552;2022-12-18T00:33:33;100930.75;;;-3.86;100.00
68941;BME280;55982;51.476;7.552;2022-12-18T00:36:08;100926.78;;;-3.79;100.00
68941;BME280;55982;51.476;7.552;2022-12-18T00:38:35;100938.28;;;-3.69;100.00
68941;BME280;55982;51.476;7.552;2022-12-18T00:41:01;100935.50;;;-3.53;100.00
68941;BME280;55982;51.476;7.552;2022-12-18T00:43:26;100935.47;;;-3.55;100.00
68941;BME280;55982;51.476;7.552;2022-12-18T00:45:52;100932.91;;;-3.55;100.00
68941;BME280;55982;51.476;7.552;2022-12-18T00:48:17;100932.91;;;-3.55;100.00
68941;BME280;55982;51.476;7.552;2022-12-18T00:50:43;100937.97;;;-3.56;100.00
68941;BME280;55982;51.476;7.552;2022-12-18T00:53:11;100938.06;;;-3.53;100.00
68941;BME280;55982;51.476;7.552;2022-12-18T00:55:39;100936.91;;;-3.61;100.00
68941;BME280;55982;51.476;7.552;2022-12-18T00:58:06;100940.63;;;-3.53;100.00
68941;BME280;55982;51.476;7.552;2022-12-18T01:00:31;100940.50;;;-3.56;100.00
68941;BME280;55982;51.476;7.552;2022-12-18T01:02:56;100941.25;;;-3.59;100.00
68941;BME280;55982;51.476;7.552;2022-12-18T01:05:22;100943.19;;;-3.53;100.00
68941;BME280;55982;51.476;7.552;2022-12-18T01:07:47;100941.50;;;-3.53;100.00
68941;BME280;55982;51.476;7.552;2022-12-18T01:10:13;100933.78;;;-3.54;100.00
68941;BME280;55982;51.476;7.552;2022-12-18T01:12:38;100933.66;;;-3.57;100.00
68941;BME280;55982;51.476;7.552;2022-12-18T01:15:06;100926.31;;;-3.50;100.00
68941;BME280;55982;51.476;7.552;2022-12-18T01:17:32;100931.28;;;-3.53;100.00
68941;BME280;55982;51.476;7.552;2022-12-18T01:19:57;100929.16;;;-3.42;100.00
68941;BME280;55982;51.476;7.552;2022-12-18T01:22:24;100932.91;;;-3.34;100.00
68941;BME280;55982;51.476;7.552;2022-12-18T01:24:49;100934.13;;;-3.45;100.00
68941;BME280;55982;51.476;7.552;2022-12-18T01:27:15;100930.53;;;-3.50;100.00
68941;BME280;55982;51.476;7.552;2022-12-18T01:29:40;100940.63;;;-3.53;100.00
68941;BME280;55982;51.476;7.552;2022-12-18T01:32:06;100936.59;;;-3.48;100.00
68941;BME280;55982;51.476;7.552;2022-12-18T01:34:31;100941.13;;;-3.41;100.00
68941;BME280;55982;51.476;7.552;2022-12-18T01:36:56;100944.97;;;-3.30;100.00
68941;BME280;55982;51.476;7.552;2022-12-18T01:39:22;100931.50;;;-3.26;100.00
68941;BME280;55982;51.476;7.552;2022-12-18T01:41:47;100939.38;;;-3.22;100.00
68941;BME280;55982;51.476;7.552;2022-12-18T01:47:30;100942.47;;;-3.08;100.00
68941;BME280;55982;51.476;7.552;2022-12-18T01:49:59;100929.44;;;-3.14;100.00
68941;BME280;55982;51.476;7.552;2022-12-18T01:52:30;100926.88;;;-3.14;100.00
68941;BME280;55982;51.476;7.552;2022-12-18T01:54:58;100912.06;;;-3.23;100.00
68941;BME280;55982;51.476;7.552;2022-12-18T01:57:25;100920.81;;;-3.38;100.00
68941;BME280;55982;51.476;7.552;2022-12-18T01:59:52;100922.69;;;-3.34;100.00
68941;BME280;55982;51.476;7.552;2022-12-18T02:02:20;100923.78;;;-3.28;100.00
68941;BME280;55982;51.476;7.552;2022-12-18T02:04:46;100921.28;;;-3.26;100.00
68941;BME280;55982;51.476;7.552;2022-12-18T02:12:42;100931.66;;;-3.44;100.00
68941;BME280;55982;51.476;7.552;2022-12-18T02:17:49;100928.91;;;-3.48;100.00
68941;BME280;55982;51.476;7.552;2022-12-18T02:26:03;100923.06;;;-3.46;100.00
68941;BME280;55982;51.476;7.552;2022-12-18T02:28:33;100922.03;;;-3.49;100.00
68941;BME280;55982;51.476;7.552;2022-12-18T02:31:02;100908.47;;;-3.48;100.00
68941;BME280;55982;51.476;7.552;2022-12-18T02:33:30;100916.38;;;-3.42;100.00
68941;BME280;55982;51.476;7.552;2022-12-18T02:35:58;100924.16;;;-3.39;100.00
68941;BME280;55982;51.476;7.552;2022-12-18T02:38:25;100908.72;;;-3.42;100.00
68941;BME280;55982;51.476;7.552;2022-12-18T02:40:51;100911.94;;;-3.46;100.00
68941;BME280;55982;51.476;7.552;2022-12-18T02:43:19;100899.97;;;-3.47;100.00
68941;BME280;55982;51.476;7.552;2022-12-18T02:45:50;100907.94;;;-3.40;100.00
68941;BME280;55982;51.476;7.552;2022-12-18T02:48:19;100903.75;;;-3.38;100.00
68941;BME280;55982;51.476;7.552;2022-12-18T02:56:18;100921.09;;;-3.51;100.00
68941;BME280;55982;51.476;7.552;2022-12-18T03:03:44;100915.44;;;-3.44;100.00
68941;BME280;55982;51.476;7.552;2022-12-18T03:06:23;100915.44;;;-3.44;100.00
68941;BME280;55982;51.476;7.552;2022-12-18T03:08:54;100910.69;;;-3.35;100.00
68941;BME280;55982;51.476;7.552;2022-12-18T03:11:21;100918.03;;;-3.22;100.00
68941;BME280;55982;51.476;7.552;2022-12-18T03:14:07;100919.66;;;-3.24;100.00
68941;BME280;55982;51.476;7.552;2022-12-18T03:16:34;100902.56;;;-3.25;100.00
68941;BME280;55982;51.476;7.552;2022-12-18T03:19:05;100895.28;;;-3.15;100.00
68941;BME280;55982;51.476;7.552;2022-12-18T03:21:40;100908.38;;;-3.07;100.00
68941;BME280;55982;51.476;7.552;2022-12-18T03:24:08;100901.88;;;-2.99;100.00
68941;BME280;55982;51.476;7.552;2022-12-18T03:26:35;100907.22;;;-2.93;100.00
68941;BME280;55982;51.476;7.552;2022-12-18T03:29:09;100918.44;;;-2.90;100.00
68941;BME280;55982;51.476;7.552;2022-12-18T03:31:37;100903.72;;;-2.95;100.00
68941;BME280;55982;51.476;7.552;2022-12-18T03:34:09;100905.59;;;-2.91;100.00
68941;BME280;55982;51.476;7.552;2022-12-18T03:36:38;100902.47;;;-3.06;100.00
68941;BME280;55982;51.476;7.552;2022-12-18T03:39:04;100901.53;;;-3.08;100.00
68941;BME280;55982;51.476;7.552;2022-12-18T03:41:43;100906.66;;;-3.08;100.00
68941;BME280;55982;51.476;7.552;2022-12-18T03:44:32;100901.41;;;-3.11;100.00
68941;BME280;55982;51.476;7.552;2022-12-18T03:47:28;100906.09;;;-3.00;100.00
68941;BME280;55982;51.476;7.552;2022-12-18T03:52:57;100898.38;;;-3.01;100.00
68941;BME280;55982;51.476;7.552;2022-12-18T03:55:27;100896.41;;;-3.08;100.00
68941;BME280;55982;51.476;7.552;2022-12-18T03:57:56;100894.44;;;-3.15;100.00
68941;BME280;55982;51.476;7.552;2022-12-18T04:00:22;100899.31;;;-3.21;100.00
68941;BME280;55982;51.476;7.552;2022-12-18T04:02:51;100905.13;;;-3.25;100.00
68941;BME280;55982;51.476;7.552;2022-12-18T04:05:19;100911.88;;;-3.27;100.00
68941;BME280;55982;51.476;7.552;2022-12-18T04:07:47;100917.31;;;-3.40;100.00
68941;BME280;55982;51.476;7.552;2022-12-18T04:10:14;100910.19;;;-3.47;100.00
68941;BME280;55982;51.476;7.552;2022-12-18T04:12:40;100904.72;;;-3.56;100.00
68941;BME280;55982;51.476;7.552;2022-12-18T04:15:06;100905.97;;;-3.67;100.00
68941;BME280;55982;51.476;7.552;2022-12-18T04:17:32;100898.25;;;-3.69;100.00
68941;BME280;55982;51.476;7.552;2022-12-18T04:19:57;100905.59;;;-3.77;100.00
68941;BME280;55982;51.476;7.552;2022-12-18T04:22:22;100903.09;;;-3.75;100.00
68941;BME280;55982;51.476;7.552;2022-12-18T04:24:48;100902.72;;;-3.63;100.00
68941;BME280;55982;51.476;7.552;2022-12-18T04:27:13;100903.09;;;-3.54;100.00
68941;BME280;55982;51.476;7.552;2022-12-18T04:29:39;100887.75;;;-3.54;100.00
68941;BME280;55982;51.476;7.552;2022-12-18T04:32:04;100903.44;;;-3.45;100.00
68941;BME280;55982;51.476;7.552;2022-12-18T04:34:30;100912.44;;;-3.34;100.00
68941;BME280;55982;51.476;7.552;2022-12-18T04:36:55;100901.97;;;-3.18;100.00
68941;BME280;55982;51.476;7.552;2022-12-18T04:39:21;100899.03;;;-3.07;100.00
68941;BME280;55982;51.476;7.552;2022-12-18T04:41:46;100903.97;;;-3.11;100.00
68941;BME280;55982;51.476;7.552;2022-12-18T04:44:12;100902.81;;;-3.19;100.00
68941;BME280;55982;51.476;7.552;2022-12-18T04:46:37;100902.91;;;-3.16;100.00
68941;BME280;55982;51.476;7.552;2022-12-18T04:49:03;100906.66;;;-3.08;100.00
68941;BME280;55982;51.476;7.552;2022-12-18T04:51:28;100910.00;;;-3.09;100.00
68941;BME280;55982;51.476;7.552;2022-12-18T04:53:53;100892.69;;;-3.16;100.00
68941;BME280;55982;51.476;7.552;2022-12-18T04:56:19;100907.78;;;-3.22;100.00
68941;BME280;55982;51.476;7.552;2022-12-18T04:58:44;100907.50;;;-3.30;100.00
68941;BME280;55982;51.476;7.552;2022-12-18T05:01:12;100906.94;;;-3.23;100.00
68941;BME280;55982;51.476;7.552;2022-12-18T05:03:38;100911.28;;;-3.20;100.00
68941;BME280;55982;51.476;7.552;2022-12-18T05:06:05;100909.31;;;-3.27;100.00
68941;BME280;55982;51.476;7.552;2022-12-18T05:08:31;100897.56;;;-3.22;100.00
68941;BME280;55982;51.476;7.552;2022-12-18T05:13:28;100887.22;;;-3.25;100.00
68941;BME280;55982;51.476;7.552;2022-12-18T05:15:54;100883.47;;;-3.33;100.00
68941;BME280;55982;51.476;7.552;2022-12-18T05:18:20;100881.16;;;-3.27;100.00
68941;BME280;55982;51.476;7.552;2022-12-18T05:20:45;100876.44;;;-3.39;100.00
68941;BME280;55982;51.476;7.552;2022-12-18T05:23:11;100868.31;;;-3.29;100.00
68941;BME280;55982;51.476;7.552;2022-12-18T05:25:36;100875.59;;;-3.17;100.00
68941;BME280;55982;51.476;7.552;2022-12-18T05:28:02;100881.00;;;-3.10;100.00
68941;BME280;55982;51.476;7.552;2022-12-18T05:30:27;100869.06;;;-3.09;100.00
68941;BME280;55982;51.476;7.552;2022-12-18T05:32:53;100876.81;;;-3.08;100.00
68941;BME280;55982;51.476;7.552;2022-12-18T05:35:18;100868.22;;;-3.10;100.00
68941;BME280;55982;51.476;7.552;2022-12-18T05:37:44;100867.56;;;-3.04;100.00
68941;BME280;55982;51.476;7.552;2022-12-18T05:40:10;100868.44;;;-3.04;100.00
68941;BME280;55982;51.476;7.552;2022-12-18T05:42:35;100874.66;;;-2.97;100.00
68941;BME280;55982;51.476;7.552;2022-12-18T05:45:01;100873.94;;;-2.93;100.00
68941;BME280;55982;51.476;7.552;2022-12-18T05:47:27;100868.66;;;-2.98;100.00
68941;BME280;55982;51.476;7.552;2022-12-18T05:49:53;100872.69;;;-3.04;100.00
68941;BME280;55982;51.476;7.552;2022-12-18T05:52:18;100866.03;;;-2.99;100.00
68941;BME280;55982;51.476;7.552;2022-12-18T05:54:44;100871.06;;;-3.02;100.00
68941;BME280;55982;51.476;7.552;2022-12-18T05:57:09;100883.56;;;-3.10;100.00
68941;BME280;55982;51.476;7.552;2022-12-18T05:59:35;100890.53;;;-3.06;100.00
68941;BME280;55982;51.476;7.552;2022-12-18T06:02:00;100896.66;;;-3.02;100.00
68941;BME280;55982;51.476;7.552;2022-12-18T06:04:27;100894.66;;;-3.09;100.00
68941;BME280;55982;51.476;7.552;2022-12-18T06:06:53;100904.19;;;-3.05;100.00
68941;BME280;55982;51.476;7.552;2022-12-18T06:09:19;100902.56;;;-3.03;100.00
68941;BME280;55982;51.476;7.552;2022-12-18T06:11:44;100903.22;;;-2.87;100.00
68941;BME280;55982;51.476;7.552;2022-12-18T06:14:10;100909.09;;;-2.89;100.00
68941;BME280;55982;51.476;7.552;2022-12-18T06:16:35;100900.56;;;-2.88;100.00
68941;BME280;55982;51.476;7.552;2022-12-18T06:19:03;100901.03;;;-2.76;100.00
68941;BME280;55982;51.476;7.552;2022-12-18T06:21:29;100913.28;;;-2.69;100.00
68941;BME280;55982;51.476;7.552;2022-12-18T06:23:55;100915.66;;;-2.73;100.00
68941;BME280;55982;51.476;7.552;2022-12-18T06:26:21;100914.91;;;-2.71;100.00
68941;BME280;55982;51.476;7.552;2022-12-18T06:28:46;100921.53;;;-2.76;100.00
68941;BME280;55982;51.476;7.552;2022-12-18T06:31:12;100926.06;;;-2.91;100.00
68941;BME280;55982;51.476;7.552;2022-12-18T06:33:38;100927.25;;;-2.83;100.00
68941;BME280;55982;51.476;7.552;2022-12-18T06:36:10;100928.88;;;-2.85;100.00
68941;BME280;55982;51.476;7.552;2022-12-18T06:38:37;100926.78;;;-2.95;100.00
68941;BME280;55982;51.476;7.552;2022-12-18T06:41:10;100924.91;;;-2.99;100.00
68941;BME280;55982;51.476;7.552;2022-12-18T06:43:36;100927.22;;;-3.05;100.00
68941;BME280;55982;51.476;7.552;2022-12-18T06:46:03;100934.22;;;-3.01;100.00
68941;BME280;55982;51.476;7.552;2022-12-18T06:48:29;100923.22;;;-2.99;100.00
68941;BME280;55982;51.476;7.552;2022-12-18T06:50:55;100919.97;;;-2.95;100.00
68941;BME280;55982;51.476;7.552;2022-12-18T06:53:20;100917.09;;;-2.80;100.00
68941;BME280;55982;51.476;7.552;2022-12-18T06:55:46;100919.91;;;-2.74;100.00
68941;BME280;55982;51.476;7.552;2022-12-18T06:58:11;100913.28;;;-2.69;100.00
68941;BME280;55982;51.476;7.552;2022-12-18T07:00:37;100920.59;;;-2.56;100.00
68941;BME280;55982;51.476;7.552;2022-12-18T07:03:02;100908.59;;;-2.57;100.00
68941;BME280;55982;51.476;7.552;2022-12-18T07:05:28;100918.81;;;-2.57;100.00
68941;BME280;55982;51.476;7.552;2022-12-18T07:07:53;100914.53;;;-2.58;100.00
68941;BME280;55982;51.476;7.552;2022-12-18T07:10:19;100903.47;;;-2.57;100.00
68941;BME280;55982;51.476;7.552;2022-12-18T07:12:44;100911.84;;;-2.61;100.00
68941;BME280;55982;51.476;7.552;2022-12-18T07:15:10;100893.56;;;-2.48;100.00
68941;BME280;55982;51.476;7.552;2022-12-18T07:17:35;100907.06;;;-2.52;100.00
68941;BME280;55982;51.476;7.552;2022-12-18T07:20:01;100905.16;;;-2.57;100.00
68941;BME280;55982;51.476;7.552;2022-12-18T07:22:26;100908.81;;;-2.51;100.00
68941;BME280;55982;51.476;7.552;2022-12-18T07:24:52;100902.06;;;-2.49;100.00
68941;BME280;55982;51.476;7.552;2022-12-18T07:27:17;100900.41;;;-2.47;100.00
68941;BME280;55982;51.476;7.552;2022-12-18T07:29:42;100889.47;;;-2.43;100.00
68941;BME280;55982;51.476;7.552;2022-12-18T07:32:08;100896.06;;;-2.26;98.07
68941;BME280;55982;51.476;7.552;2022-12-18T07:34:34;100891.91;;;-2.22;97.48
68941;BME280;55982;51.476;7.552;2022-12-18T07:36:59;100892.78;;;-2.22;97.66
68941;BME280;55982;51.476;7.552;2022-12-18T07:39:25;100887.16;;;-2.12;96.26
68941;BME280;55982;51.476;7.552;2022-12-18T07:41:50;100876.38;;;-2.02;95.11
68941;BME280;55982;51.476;7.552;2022-12-18T07:44:34;100878.34;;;-1.95;94.57
68941;BME280;55982;51.476;7.552;2022-12-18T07:46:59;100878.56;;;-1.89;93.24
68941;BME280;55982;51.476;7.552;2022-12-18T07:49:25;100879.47;;;-1.61;90.62
68941;BME280;55982;51.476;7.552;2022-12-18T07:51:50;100881.09;;;-1.63;91.02
68941;BME280;55982;51.476;7.552;2022-12-18T07:54:15;100878.66;;;-1.59;89.46
68941;BME280;55982;51.476;7.552;2022-12-18T07:56:41;100877.63;;;-1.65;90.21
68941;BME280;55982;51.476;7.552;2022-12-18T07:59:06;100882.84;;;-1.62;90.35
68941;BME280;55982;51.476;7.552;2022-12-18T08:01:33;100884.75;;;-1.55;89.63
68941;BME280;55982;51.476;7.552;2022-12-18T08:03:58;100887.25;;;-1.58;89.89
68941;BME280;55982;51.476;7.552;2022-12-18T08:06:24;100883.25;;;-1.50;88.78
68941;BME280;55982;51.476;7.552;2022-12-18T08:08:51;100882.75;;;-1.39;87.87
68941;BME280;55982;51.476;7.552;2022-12-18T08:11:16;100878.66;;;-1.32;86.90
68941;BME280;55982;51.476;7.552;2022-12-18T08:13:42;100876.28;;;-1.26;86.46
68941;BME280;55982;51.476;7.552;2022-12-18T08:16:07;100867.31;;;-1.12;85.07
68941;BME280;55982;51.476;7.552;2022-12-18T08:18:34;100879.69;;;-0.99;83.89
68941;BME280;55982;51.476;7.552;2022-12-18T08:23:38;100862.50;;;-0.73;82.19
68941;BME280;55982;51.476;7.552;2022-12-18T08:26:04;100856.66;;;-0.68;82.10
68941;BME280;55982;51.476;7.552;2022-12-18T08:28:30;100849.38;;;-0.53;80.06
68941;BME280;55982;51.476;7.552;2022-12-18T08:30:55;100848.78;;;-0.43;79.31
68941;BME280;55982;51.476;7.552;2022-12-18T08:33:20;100837.25;;;-0.26;78.43
68941;BME280;55982;51.476;7.552;2022-12-18T08:35:46;100831.56;;;-0.14;77.74
68941;BME280;55982;51.476;7.552;2022-12-18T08:38:11;100839.63;;;-0.01;76.58
68941;BME280;55982;51.476;7.552;2022-12-18T08:40:37;100829.25;;;-0.04;74.99
68941;BME280;55982;51.476;7.552;2022-12-18T08:43:02;100818.97;;;-0.04;75.97
68941;BME280;55982;51.476;7.552;2022-12-18T08:45:46;100818.06;;;0.29;75.14
68941;BME280;55982;51.476;7.552;2022-12-18T08:48:11;100813.91;;;0.35;73.41
68941;BME280;55982;51.476;7.552;2022-12-18T08:50:37;100811.94;;;1.00;72.06
68941;BME280;55982;51.476;7.552;2022-12-18T08:53:02;100809.88;;;1.25;68.77
68941;BME280;55982;51.476;7.552;2022-12-18T08:55:27;100810.59;;;1.61;66.49
68941;BME280;55982;51.476;7.552;2022-12-18T08:57:53;100807.59;;;1.86;64.13
68941;BME280;55982;51.476;7.552;2022-12-18T09:00:18;100807.81;;;1.99;63.10
68941;BME280;55982;51.476;7.552;2022-12-18T09:02:45;100802.53;;;1.90;63.13
68941;BME280;55982;51.476;7.552;2022-12-18T09:05:10;100809.59;;;2.00;61.49
68941;BME280;55982;51.476;7.552;2022-12-18T09:07:35;100829.63;;;2.16;60.17
68941;BME280;55982;51.476;7.552;2022-12-18T09:10:07;100827.38;;;2.37;59.25
68941;BME280;55982;51.476;7.552;2022-12-18T09:12:33;100828.81;;;2.73;57.86
68941;BME280;55982;51.476;7.552;2022-12-18T09:14:58;100822.63;;;2.61;57.53
68941;BME280;55982;51.476;7.552;2022-12-18T09:17:23;100826.03;;;2.60;57.57
68941;BME280;55982;51.476;7.552;2022-12-18T09:19:49;100821.63;;;2.54;56.97
68941;BME280;55982;51.476;7.552;2022-12-18T09:22:14;100811.53;;;2.69;57.71
68941;BME280;55982;51.476;7.552;2022-12-18T09:24:39;100811.09;;;2.99;55.71
68941;BME280;55982;51.476;7.552;2022-12-18T09:27:05;100809.84;;;2.73;56.33
68941;BME280;55982;51.476;7.552;2022-12-18T09:29:32;100804.31;;;2.46;57.26
68941;BME280;55982;51.476;7.552;2022-12-18T09:31:57;100811.19;;;2.45;56.69
68941;BME280;55982;51.476;7.552;2022-12-18T09:34:23;100807.63;;;2.37;57.01
68941;BME280;55982;51.476;7.552;2022-12-18T09:36:48;100806.69;;;2.34;57.50
68941;BME280;55982;51.476;7.552;2022-12-18T09:39:14;100814.00;;;2.08;57.81
68941;BME280;55982;51.476;7.552;2022-12-18T09:41:53;100800.94;;;1.98;57.62
68941;BME280;55982;51.476;7.552;2022-12-18T09:44:27;100789.41;;;2.30;57.66
68941;BME280;55982;51.476;7.552;2022-12-18T09:49:50;100795.38;;;3.56;54.20
68941;BME280;55982;51.476;7.552;2022-12-18T09:52:19;100782.44;;;3.56;53.54
68941;BME280;55982;51.476;7.552;2022-12-18T09:54:52;100778.91;;;3.46;52.78
68941;BME280;55982;51.476;7.552;2022-12-18T09:57:21;100783.19;;;3.46;53.57
68941;BME280;55982;51.476;7.552;2022-12-18T09:59:57;100776.75;;;3.09;55.03
68941;BME280;55982;51.476;7.552;2022-12-18T10:02:25;100776.22;;;2.68;54.80
68941;BME280;55982;51.476;7.552;2022-12-18T10:07:40;100778.63;;;3.22;53.77
68941;BME280;55982;51.476;7.552;2022-12-18T10:10:23;100782.94;;;3.22;54.01
68941;BME280;55982;51.476;7.552;2022-12-18T10:13:42;100785.41;;;3.13;54.42
68941;BME280;55982;51.476;7.552;2022-12-18T10:16:17;100773.25;;;3.04;52.57
68941;BME280;55982;51.476;7.552;2022-12-18T10:25:03;100757.66;;;2.98;52.94
68941;BME280;55982;51.476;7.552;2022-12-18T10:27:27;100756.03;;;3.06;52.80
68941;BME280;55982;51.476;7.552;2022-12-18T10:29:55;100739.66;;;3.06;52.97
68941;BME280;55982;51.476;7.552;2022-12-18T10:32:23;100737.88;;;3.00;52.77
68941;BME280;55982;51.476;7.552;2022-12-18T10:34:53;100750.44;;;2.73;54.05
68941;BME280;55982;51.476;7.552;2022-12-18T10:37:21;100752.09;;;2.68;52.75
68941;BME280;55982;51.476;7.552;2022-12-18T10:40:12;100746.13;;;2.70;53.59
68941;BME280;55982;51.476;7.552;2022-12-18T10:42:38;100729.66;;;2.64;54.31
68941;BME280;55982;51.476;7.552;2022-12-18T10:45:15;100717.59;;;2.63;53.02
68941;BME280;55982;51.476;7.552;2022-12-18T10:47:48;100708.88;;;2.55;53.18
68941;BME280;55982;51.476;7.552;2022-12-18T10:50:34;100708.88;;;2.53;53.13
68941;BME280;55982;51.476;7.552;2022-12-18T10:53:03;100702.06;;;2.60;53.56
68941;BME280;55982;51.476;7.552;2022-12-18T10:55:48;100700.41;;;2.65;53.22
68941;BME280;55982;51.476;7.552;2022-12-18T10:58:29;100689.28;;;2.70;53.66
68941;BME280;55982;51.476;7.552;2022-12-18T11:01:05;100692.78;;;2.75;53.00
68941;BME280;55982;51.476;7.552;2022-12-18T11:03:39;100691.91;;;2.75;53.58
68941;BME280;55982;51.476;7.552;2022-12-18T11:06:06;100693.72;;;2.82;51.96
68941;BME280;55982;51.476;7.552;2022-12-18T11:08:32;100692.03;;;2.84;51.78
68941;BME280;55982;51.476;7.552;2022-12-18T11:10:58;100700.69;;;2.86;51.40
68941;BME280;55982;51.476;7.552;2022-12-18T11:13:27;100686.19;;;3.02;51.80
68941;BME280;55982;51.476;7.552;2022-12-18T11:15:53;100682.78;;;3.04;51.52
68941;BME280;55982;51.476;7.552;2022-12-18T11:18:28;100687.06;;;3.02;52.23
68941;BME280;55982;51.476;7.552;2022-12-18T11:21:08;100680.25;;;3.10;52.48
68941;BME280;55982;51.476;7.552;2022-12-18T11:23:34;100687.34;;;3.26;51.21
68941;BME280;55982;51.476;7.552;2022-12-18T11:26:03;100689.88;;;3.25;50.79
68941;BME280;55982;51.476;7.552;2022-12-18T11:28:51;100684.75;;;3.28;50.63
68941;BME280;55982;51.476;7.552;2022-12-18T11:31:21;100672.72;;;3.30;50.36
68941;BME280;55982;51.476;7.552;2022-12-18T11:34:16;100677.97;;;3.40;51.81
68941;BME280;55982;51.476;7.552;2022-12-18T11:36:47;100668.50;;;3.39;50.69
68941;BME280;55982;51.476;7.552;2022-12-18T11:42:12;100662.50;;;3.42;50.26
68941;BME280;55982;51.476;7.552;2022-12-18T11:44:55;100661.69;;;3.47;51.13
68941;BME280;55982;51.476;7.552;2022-12-18T11:49:51;100653.03;;;3.45;49.28
68941;BME280;55982;51.476;7.552;2022-12-18T11:52:26;100639.22;;;3.46;50.38
68941;BME280;55982;51.476;7.552;2022-12-18T11:54:56;100641.88;;;3.54;51.03
68941;BME280;55982;51.476;7.552;2022-12-18T11:57:34;100630.59;;;3.44;52.36
68941;BME280;55982;51.476;7.552;2022-12-18T12:00:13;100632.41;;;3.51;49.84
68941;BME280;55982;51.476;7.552;2022-12-18T12:03:13;100625.41;;;3.44;49.13
68941;BME280;55982;51.476;7.552;2022-12-18T12:16:22;100610.09;;;3.68;48.17
68941;BME280;55982;51.476;7.552;2022-12-18T12:21:58;100604.94;;;3.68;46.33
68941;BME280;55982;51.476;7.552;2022-12-18T12:24:49;100604.06;;;3.71;46.39
68941;BME280;55982;51.476;7.552;2022-12-18T12:30:08;100593.75;;;3.72;44.83
68941;BME280;55982;51.476;7.552;2022-12-18T12:32:51;100595.47;;;3.75;44.85
68941;BME280;55982;51.476;7.552;2022-12-18T12:40:34;100576.47;;;3.68;44.84
68941;BME280;55982;51.476;7.552;2022-12-18T12:46:00;100577.31;;;3.67;45.35
68941;BME280;55982;51.476;7.552;2022-12-18T12:48:40;100577.31;;;3.67;45.86
68941;BME280;55982;51.476;7.552;2022-12-18T12:53:51;100572.13;;;3.67;45.27
68941;BME280;55982;51.476;7.552;2022-12-18T12:56:21;100563.53;;;3.68;45.29
68941;BME280;55982;51.476;7.552;2022-12-18T12:58:59;100560.06;;;3.66;45.53
68941;BME280;55982;51.476;7.552;2022-12-18T13:01:59;100553.19;;;3.68;46.54
68941;BME280;55982;51.476;7.552;2022-12-18T13:07:05;100558.31;;;3.65;46.43
68941;BME280;55982;51.476;7.552;2022-12-18T13:09:33;100560.91;;;3.65;45.77
68941;BME280;55982;51.476;7.552;2022-12-18T13:12:10;100556.66;;;3.77;45.26
68941;BME280;55982;51.476;7.552;2022-12-18T13:15:12;100558.41;;;3.75;45.45
68941;BME280;55982;51.476;7.552;2022-12-18T13:17:38;100551.50;;;3.77;44.84
68941;BME280;55982;51.476;7.552;2022-12-18T13:20:11;100560.13;;;3.72;44.92
68941;BME280;55982;51.476;7.552;2022-12-18T13:22:45;100558.38;;;3.71;45.49
68941;BME280;55982;51.476;7.552;2022-12-18T13:25:31;100563.53;;;3.68;45.24
68941;BME280;55982;51.476;7.552;2022-12-18T13:28:07;100559.19;;;3.67;45.55
68941;BME280;55982;51.476;7.552;2022-12-18T13:35:51;100549.69;;;3.63;46.29
68941;BME280;55982;51.476;7.552;2022-12-18T13:43:33;100545.28;;;3.47;46.92
68941;BME280;55982;51.476;7.552;2022-12-18T13:48:30;100547.78;;;3.38;46.91
68941;BME280;55982;51.476;7.552;2022-12-18T13:51:09;100558.13;;;3.32;47.08
68941;BME280;55982;51.476;7.552;2022-12-18T13:53:43;100555.53;;;3.32;47.71
68941;BME280;55982;51.476;7.552;2022-12-18T13:56:17;100558.13;;;3.34;47.45
68941;BME280;55982;51.476;7.552;2022-12-18T13:58:43;100551.19;;;3.28;48.10
68941;BME280;55982;51.476;7.552;2022-12-18T14:01:21;100557.19;;;3.29;47.12
68941;BME280;55982;51.476;7.552;2022-12-18T14:03:47;100554.59;;;3.24;47.74
68941;BME280;55982;51.476;7.552;2022-12-18T14:06:13;100559.72;;;3.21;47.79
68941;BME280;55982;51.476;7.552;2022-12-18T14:08:40;100555.44;;;3.25;47.19
68941;BME280;55982;51.476;7.552;2022-12-18T14:11:07;100559.72;;;3.18;47.95
68941;BME280;55982;51.476;7.552;2022-12-18T14:13:41;100549.31;;;3.12;48.96
68941;BME280;55982;51.476;7.552;2022-12-18T14:16:07;100554.50;;;3.15;48.53
68941;BME280;55982;51.476;7.552;2022-12-18T14:18:53;100542.34;;;3.04;49.63
68941;BME280;55982;51.476;7.552;2022-12-18T14:21:30;100544.09;;;3.06;49.13
68941;BME280;55982;51.476;7.552;2022-12-18T14:26:38;100528.47;;;2.94;50.07
68941;BME280;55982;51.476;7.552;2022-12-18T14:29:36;100536.16;;;2.87;49.89
68941;BME280;55982;51.476;7.552;2022-12-18T14:32:19;100534.38;;;2.78;50.75
68941;BME280;55982;51.476;7.552;2022-12-18T14:34:50;100527.38;;;2.65;51.76
68941;BME280;55982;51.476;7.552;2022-12-18T14:37:20;100518.69;;;2.58;52.46